Lummi Island, Washington
Current Conditions -  °F | °C
As of 6:53 AM on Wednesday 22 Oct 2014 (Local Time) from KBLI Reporting Station
Light Rain Light Rain  
Wind Chill: 56°   Ceiling: 2300
Heat Index: 56°   Visibility: 9mi
Dew Point: 51°   Wind: 20mph
Humidity: 84%   Direction: 150°SSE
Pressure: 29.61"   Gusts: 29mph
Location:  48.72°N, 122.68°W
Report Text: KBLI 221353Z AUTO 15017G25KT 9SM -RA BKN023 BKN075 OVC100 13/11 A2961 RMK AO2 RAB1255 SLP032 P0006 T01330106
Loading
Personal Weather Stations






























Interactive Weather Map
Tropical Storm Tracking
New forecast layout! Learn more

10-Day Weather Forecast

Advertisements
Track Severe Weather on mobile